»·PEaware :: EDG26 KTEX-KVNY

EDG26 :: KTEX-KVNY

FLIGHT INFORMATION

Flight Status: Arrived
Operator: Unknown
More flights by this operator :: More flights under this callsign
Pilot: Anonymous 7783 (7783)
Aircraft: CANADAIR CL-600 CHALLENGER
(CL60)
More flights by this aircraft type
Origin: KTEX Telluride Regl
United States
Destination: KVNY Van Nuys
United States
More flights between these airports :: More routes between these airports
Route: ETL DVC ROOLL Q94 WELUM JANNY5
File this flight plan on PilotEdge
Remarks: Shared Cockpit
Altitude:
(Current/Filed)
40,000ft
Speed:
(Current/Filed)
465kts
Departed: 27-Aug-23 07:55 PM
Arrived: 27-Aug-23 09:22 PM
Distance/Time
Traveled:
560nm/1:27
Distance/Time
To Go:
Arrived

Flight Plot

Page will automatically refresh every two minutes.

Flight plan parsing failed; only flown route is shown


Map Options




Map Legend


Flown Route
Filed Route
Departure Airport
Arrival Airport
Navaid (VOR, NDB)
Fix

Horizontal Profiles

Position Reports

Time Latitude Longitude Heading Altitude Ground
Speed
27-Aug-23 19:33 37.954561 -107.902718 281 9078ft 0kts
27-Aug-23 19:33 37.954561 -107.902718 281 9078ft 0kts
27-Aug-23 19:34 37.954561 -107.902718 281 9078ft 0kts
27-Aug-23 19:36 37.954561 -107.902718 281 9078ft 0kts
27-Aug-23 19:37 37.954561 -107.902718 281 9078ft 0kts
27-Aug-23 19:38 37.954561 -107.902718 281 9078ft 0kts
27-Aug-23 19:38 37.954561 -107.902718 281 9078ft 0kts
27-Aug-23 19:39 37.954561 -107.902718 281 9078ft 0kts
27-Aug-23 19:40 37.954561 -107.902718 281 9078ft 0kts
27-Aug-23 19:41 37.954561 -107.902718 281 9078ft 0kts
27-Aug-23 19:43 37.954561 -107.902718 281 9078ft 0kts
27-Aug-23 19:43 37.954561 -107.902718 281 9078ft 0kts
27-Aug-23 19:44 37.954561 -107.902718 281 9078ft 0kts
27-Aug-23 19:45 37.954561 -107.902718 281 9078ft 0kts
27-Aug-23 19:46 37.954561 -107.902718 281 9078ft 0kts
27-Aug-23 19:47 37.954561 -107.902718 281 9078ft 0kts
27-Aug-23 19:48 37.954561 -107.902718 281 9078ft 0kts
27-Aug-23 19:49 37.953972 -107.903144 183 9078ft 9kts
27-Aug-23 19:50 37.952739 -107.898333 106 9078ft 16kts
27-Aug-23 19:51 37.952315 -107.896751 148 9078ft 0kts
27-Aug-23 19:52 37.951404 -107.896936 212 9078ft 10kts
27-Aug-23 19:53 37.951356 -107.897300 291 9078ft 0kts
27-Aug-23 19:54 37.959133 -107.930167 289 9915ft 192kts
27-Aug-23 19:55 37.976327 -107.996966 291 14352ft 210kts
27-Aug-23 19:56 37.997800 -108.082727 288 17250ft 303kts
27-Aug-23 19:57 38.024390 -108.190450 288 20836ft 337kts
27-Aug-23 19:58 38.025260 -108.314254 247 23634ft 377kts
27-Aug-23 19:59 37.981011 -108.437402 248 26690ft 391kts
27-Aug-23 20:00 37.936566 -108.565551 249 29340ft 402kts
27-Aug-23 20:01 37.890375 -108.699352 248 31563ft 414kts
27-Aug-23 20:02 37.842079 -108.838682 249 32883ft 436kts
27-Aug-23 20:03 37.790577 -108.977508 245 34808ft 434kts
27-Aug-23 20:04 37.724981 -109.107114 240 36340ft 438kts
27-Aug-23 20:05 37.657010 -109.236716 240 37493ft 444kts
27-Aug-23 20:06 37.588743 -109.367707 241 38577ft 446kts
27-Aug-23 20:07 37.522316 -109.495419 241 39527ft 447kts
27-Aug-23 20:08 37.453793 -109.626999 240 40476ft 445kts
27-Aug-23 20:09 37.384792 -109.759206 240 40852ft 448kts
27-Aug-23 20:10 37.315524 -109.891630 240 40861ft 457kts
27-Aug-23 20:11 37.244870 -110.026316 239 40833ft 458kts
27-Aug-23 20:12 37.174219 -110.160412 240 40817ft 458kts
27-Aug-23 20:13 37.103703 -110.293763 240 40828ft 458kts
27-Aug-23 20:14 37.032801 -110.427322 240 40822ft 458kts
27-Aug-23 20:15 36.961576 -110.560984 239 40750ft 458kts
27-Aug-23 20:16 36.899012 -110.677916 239 40739ft 458kts
27-Aug-23 20:17 36.827593 -110.810886 239 40712ft 459kts
27-Aug-23 20:18 36.755832 -110.943998 239 40679ft 459kts
27-Aug-23 20:19 36.684188 -111.076379 239 40671ft 459kts
27-Aug-23 20:20 36.612309 -111.208666 239 40664ft 459kts
27-Aug-23 20:21 36.540259 -111.340727 239 40670ft 460kts
27-Aug-23 20:22 36.471675 -111.475646 247 40688ft 457kts
27-Aug-23 20:23 36.424123 -111.622345 252 40670ft 455kts
27-Aug-23 20:24 36.378454 -111.772070 251 40695ft 455kts
27-Aug-23 20:25 36.333708 -111.919733 252 40758ft 456kts
27-Aug-23 20:26 36.289105 -112.067226 252 40756ft 455kts
27-Aug-23 20:27 36.244383 -112.214869 252 40781ft 455kts
27-Aug-23 20:28 36.199536 -112.362481 252 40793ft 456kts
27-Aug-23 20:29 36.154625 -112.509729 252 40765ft 456kts
27-Aug-23 20:30 36.109570 -112.656797 251 40764ft 455kts
27-Aug-23 20:31 36.063940 -112.805011 251 40791ft 455kts
27-Aug-23 20:32 36.018513 -112.951850 251 40797ft 455kts
27-Aug-23 20:33 35.973100 -113.097933 251 40764ft 455kts
27-Aug-23 20:34 35.927417 -113.244067 251 40697ft 455kts
27-Aug-23 20:35 35.881423 -113.390507 251 40685ft 454kts
27-Aug-23 20:36 35.837785 -113.528838 251 40609ft 454kts
27-Aug-23 20:37 35.791409 -113.675223 250 40577ft 454kts
27-Aug-23 20:38 35.745430 -113.819648 250 40522ft 454kts
27-Aug-23 20:39 35.699010 -113.964748 250 40505ft 453kts
27-Aug-23 20:40 35.652530 -114.109331 250 40499ft 454kts
27-Aug-23 20:41 35.605827 -114.253907 250 40537ft 454kts
27-Aug-23 20:42 35.558894 -114.398499 250 40490ft 454kts
27-Aug-23 20:43 35.511874 -114.542654 250 40461ft 454kts
27-Aug-23 20:44 35.463897 -114.689066 250 40436ft 454kts
27-Aug-23 20:45 35.416376 -114.833354 250 40459ft 454kts
27-Aug-23 20:46 35.370279 -114.977867 252 40427ft 453kts
27-Aug-23 20:47 35.328170 -115.124034 252 40436ft 452kts
27-Aug-23 20:48 35.285993 -115.269592 252 40468ft 452kts
27-Aug-23 20:49 35.243214 -115.416489 252 39006ft 456kts
27-Aug-23 20:50 35.200564 -115.562604 252 36973ft 456kts
27-Aug-23 20:51 35.156892 -115.711432 252 34800ft 456kts
27-Aug-23 20:52 35.110331 -115.853238 242 32339ft 444kts
27-Aug-23 20:53 35.044808 -115.976334 238 29815ft 417kts
27-Aug-23 20:54 34.984352 -116.092579 239 27670ft 399kts
27-Aug-23 20:55 34.925732 -116.207038 239 25529ft 392kts
27-Aug-23 20:56 34.877163 -116.327712 245 25287ft 390kts
27-Aug-23 20:57 34.830489 -116.448099 245 25293ft 393kts
27-Aug-23 20:58 34.784828 -116.569594 256 24083ft 389kts
27-Aug-23 20:59 34.773719 -116.700089 263 23326ft 385kts
27-Aug-23 21:00 34.761737 -116.828716 263 22451ft 380kts
27-Aug-23 21:01 34.749200 -116.956036 263 21550ft 377kts
27-Aug-23 21:02 34.736448 -117.082524 263 20644ft 372kts
27-Aug-23 21:03 34.723679 -117.207082 263 19752ft 369kts
27-Aug-23 21:04 34.710868 -117.330634 263 18780ft 363kts
27-Aug-23 21:05 34.698059 -117.452727 263 17918ft 361kts
27-Aug-23 21:06 34.685104 -117.573552 263 17003ft 357kts
27-Aug-23 21:07 34.672284 -117.693909 262 16116ft 354kts
27-Aug-23 21:08 34.659661 -117.812629 262 15239ft 350kts
27-Aug-23 21:09 34.647011 -117.930432 263 14054ft 348kts
27-Aug-23 21:10 34.634551 -118.047020 262 12680ft 343kts
27-Aug-23 21:11 34.613286 -118.152644 252 11305ft 302kts
27-Aug-23 21:12 34.591696 -118.247130 252 9999ft 278kts
27-Aug-23 21:13 34.571442 -118.336780 253 8820ft 272kts
27-Aug-23 21:14 34.551590 -118.425284 253 8538ft 272kts
27-Aug-23 21:15 34.518174 -118.502393 204 7176ft 256kts
27-Aug-23 21:16 34.450316 -118.513940 177 6267ft 240kts
27-Aug-23 21:17 34.382794 -118.507247 177 4609ft 238kts
27-Aug-23 21:18 34.319123 -118.500864 177 3178ft 211kts
27-Aug-23 21:19 34.270029 -118.496524 176 2091ft 168kts
27-Aug-23 21:20 34.227255 -118.492027 178 1108ft 144kts
27-Aug-23 21:21 34.202699 -118.489837 228 768ft 10kts
27-Aug-23 21:22 34.205985 -118.491197 355 775ft 20kts
27-Aug-23 21:23 34.212782 -118.491833 354 791ft 26kts
27-Aug-23 21:24 34.216734 -118.492431 299 799ft 6kts
27-Aug-23 21:25 34.218049 -118.496829 351 801ft 13kts
27-Aug-23 21:26 34.219292 -118.497149 118 802ft 0kts
27-Aug-23 21:27 34.219292 -118.497149 118 802ft 0kts
27-Aug-23 21:28 34.219292 -118.497149 118 802ft 0kts
27-Aug-23 21:29 34.219292 -118.497149 118 802ft 0kts
27-Aug-23 21:30 34.219292 -118.497149 118 802ft 0kts
27-Aug-23 21:31 34.219292 -118.497149 118 802ft 0kts
27-Aug-23 21:32 34.219292 -118.497149 118 802ft 0kts
27-Aug-23 21:33 34.219292 -118.497149 118 802ft 0kts
27-Aug-23 21:34 34.219292 -118.497149 118 802ft 0kts
27-Aug-23 21:35 34.219292 -118.497149 118 802ft 0kts

Navigation Log

Ident Type
Flight plan parsing failed, navigation log unavailable